M I D A S
Marine Information and Data Acquisition System
Tripno 2316 of the Zeeleeuw from 2012-05-21 08:23:06 to 2012-05-21 13:44:45
Back to CruiseResearch ActivitiesStationsMapUnderway DataData graphs

EquipmentUnitsComment
TimeDGPSUTC
LatitudeDGPSDM.mWGS84
LongitudeDGPSDM.mWGS84
TemperatureSBE03/SBE38deg celciusITS90
ConductivitySBE21S/mITS90
SalinitySBE21 Practical Salinity Units
ChlorophylAChelsea fluorimeterg/lCalibrated in Aceton
Missing or incorrect values are displayed as -999
Sea surface data collected by the RV Zeeleeuw from 2012-05-21 06:07:44 to 2012-05-21 13:58:18
Time Latitude Longitude Temperature Conductivity Salinity ChlorophylA
2012-05-21 06:08:48 51°13.636 2°56.018 18.3412 0.120645 0.575325 -2.458615
2012-05-21 06:09:49 51°13.638 2°56.017 18.3405 0.120645 0.575342 -2.458615
2012-05-21 06:10:49 51°13.64 2°56.019 18.3394 0.120645 0.575367 -2.458615
2012-05-21 06:11:48 51°13.64 2°56.02 18.3453 0.120542 0.574865 -2.458615
2012-05-21 06:12:49 51°13.64 2°56.02 18.3472 0.120542 0.57489 -2.458615
2012-05-21 06:13:49 51°13.639 2°56.02 18.3456 0.120645 0.575417 -2.458615
2012-05-21 06:14:49 51°13.639 2°56.02 18.3471 0.120542 0.574924 -2.458615
2012-05-21 06:15:49 51°13.638 2°56.02 18.3523 0.120645 0.57545 -2.458615
2012-05-21 06:16:49 51°13.638 2°56.019 18.3512 0.120542 0.574957 -2.458615
2012-05-21 06:17:48 51°13.638 2°56.019 18.3507 0.120645 0.575492 -2.458615
2012-05-21 06:18:49 51°13.637 2°56.019 18.3568 0.120645 0.575509 -2.458615
2012-05-21 06:19:48 51°13.637 2°56.019 18.3649 0.120747 0.576036 -2.458615
2012-05-21 06:20:49 51°13.636 2°56.019 18.363 0.120645 0.575542 -2.458615
2012-05-21 06:21:49 51°13.636 2°56.019 18.3694 0.120645 0.575567 -2.458615
2012-05-21 06:22:48 51°13.636 2°56.018 18.3685 0.120645 0.575584 -2.458615
2012-05-21 06:23:49 51°13.635 2°56.018 18.367 0.120645 0.575609 -2.458615
2012-05-21 06:24:49 51°13.635 2°56.018 18.3716 0.120645 0.575626 -2.458615
2012-05-21 06:25:49 51°13.635 2°56.018 18.372 0.120645 0.575643 -2.458615
2012-05-21 06:26:49 51°13.636 2°56.018 18.375 0.120645 0.575668 -2.458615
2012-05-21 06:27:49 51°13.636 2°56.019 18.368 0.120645 0.575676 -2.458615
2012-05-21 06:28:49 51°13.635 2°56.018 18.3735 0.120645 0.575701 -2.458615
2012-05-21 06:29:48 51°13.635 2°56.018 18.3768 0.120645 0.57571 -2.458615
2012-05-21 06:30:49 51°13.636 2°56.018 18.3824 0.120542 0.575224 -2.458615
2012-05-21 06:31:49 51°13.636 2°56.018 18.3839 0.120542 0.575241 -2.458615
2012-05-21 06:32:49 51°13.636 2°56.018 18.386 0.120645 0.575777 -2.458615
2012-05-21 06:33:49 51°13.636 2°56.018 18.3889 0.120542 0.575283 -2.458615
2012-05-21 06:34:49 51°13.634 2°56.017 18.3917 0.120542 0.575308 -2.458615
2012-05-21 06:35:49 51°13.636 2°56.017 18.3933 0.120542 0.575333 -2.458615
2012-05-21 06:36:49 51°13.636 2°56.017 18.3959 0.120645 0.575869 -2.458615
2012-05-21 06:37:48 51°13.636 2°56.016 18.3995 0.120542 0.575375 -2.458615
2012-05-21 06:38:48 51°13.635 2°56.017 18.4008 0.120645 0.575927 -2.458615
2012-05-21 06:39:49 51°13.635 2°56.018 18.4034 0.120645 0.575952 -2.458615
2012-05-21 06:40:48 51°13.635 2°56.019 18.401 0.120542 0.575467 -2.458615
2012-05-21 06:41:49 51°13.635 2°56.019 18.4039 0.120542 0.5755 -2.458615
2012-05-21 06:42:48 51°13.635 2°56.019 18.4063 0.120645 0.576036 -2.458615
2012-05-21 06:43:49 51°13.635 2°56.019 18.4108 0.120542 0.57555 -2.458615
2012-05-21 06:44:49 51°13.635 2°56.019 18.4118 0.120542 0.575576 -2.458615
2012-05-21 06:45:49 51°13.636 2°56.019 18.4093 0.120542 0.575601 -2.458615
2012-05-21 06:46:48 51°13.636 2°56.019 18.4173 0.120542 0.575634 -2.458615
2012-05-21 06:47:48 51°13.635 2°56.019 18.4193 0.120542 0.575659 -2.458615
2012-05-21 06:48:49 51°13.635 2°56.019 18.4231 0.120542 0.575684 -2.458615
2012-05-21 06:49:49 51°13.635 2°56.019 18.4622 0.120542 0.57571 -2.458615
2012-05-21 06:50:49 51°13.634 2°56.019 18.4234 0.120439 0.575232 -2.458615
2012-05-21 06:51:49 51°13.634 2°56.019 18.4392 0.120439 0.575257 -2.458615
2012-05-21 06:52:48 51°13.634 2°56.019 18.4317 0.120439 0.575291 -2.458615
2012-05-21 06:53:48 51°13.634 2°56.02 18.449 0.120542 0.575835 -2.458615
2012-05-21 06:54:48 51°13.635 2°56.019 18.4414 0.120542 0.575869 -2.458615
2012-05-21 06:55:48 51°13.635 2°56.019 18.4434 0.120542 0.575902 -2.458615
2012-05-21 06:56:49 51°13.636 2°56.019 18.4415 0.120439 0.575425 -2.458615
2012-05-21 06:57:48 51°13.637 2°56.019 18.4439 0.120542 0.575969 -2.458615
2012-05-21 06:58:48 51°13.637 2°56.019 18.4478 0.120542 0.575994 -2.458615
2012-05-21 06:59:49 51°13.637 2°56.018 18.4609 0.120439 0.575525 -2.458615
2012-05-21 07:00:49 51°13.637 2°56.019 18.4536 0.120542 0.576062 -2.458615
2012-05-21 07:01:49 51°13.637 2°56.019 18.4584 0.120439 0.575584 -2.458615
2012-05-21 07:02:49 51°13.638 2°56.019 18.4696 0.120439 0.575617 -2.458615
2012-05-21 07:03:49 51°13.638 2°56.021 18.4649 0.120542 0.576154 -2.458615
2012-05-21 07:04:49 51°13.638 2°56.019 18.4712 0.120542 0.576187 -2.458615
2012-05-21 07:05:49 51°13.638 2°56.019 18.4685 0.120542 0.576213 -2.458615
2012-05-21 07:06:49 51°13.638 2°56.019 18.4727 0.120439 0.575743 -2.458615
2012-05-21 07:07:49 51°13.638 2°56.019 18.4793 0.120439 0.575777 -2.458615
2012-05-21 07:08:49 51°13.637 2°56.018 18.4859 0.120439 0.57581 -2.458615
2012-05-21 07:09:49 51°13.637 2°56.019 18.4825 0.120439 0.575844 -2.458615
2012-05-21 07:10:49 51°13.637 2°56.019 18.4916 0.120439 0.575886 -2.458615
2012-05-21 07:11:49 51°13.635 2°56.019 18.4885 0.120439 0.575919 -2.458615
2012-05-21 07:12:49 51°13.634 2°56.019 18.5068 0.120439 0.575953 -2.458615
2012-05-21 07:13:48 51°13.635 2°56.019 18.491 0.120439 0.575987 -2.458615
2012-05-21 07:14:49 51°13.634 2°56.019 18.4892 0.120439 0.57602 -2.458615
2012-05-21 07:15:49 51°13.634 2°56.019 18.4966 0.120439 0.576062 -2.458615
2012-05-21 07:16:49 51°13.635 2°56.018 18.5016 0.120439 0.576087 -2.458615
2012-05-21 07:17:49 51°13.636 2°56.018 18.5041 0.120439 0.576129 -2.458615
2012-05-21 07:18:49 51°13.635 2°56.017 18.5091 0.120439 0.576154 -2.458615
2012-05-21 07:19:49 51°13.636 2°56.017 18.4968 0.120336 0.575693 -2.458615
2012-05-21 07:20:49 51°13.636 2°56.017 18.5087 0.120439 0.57623 -2.458615
2012-05-21 07:21:49 51°13.636 2°56.016 18.5163 0.120336 0.575752 -2.458615
2012-05-21 07:22:49 51°13.637 2°56.015 18.5143 0.120336 0.575794 -2.458615
2012-05-21 07:23:49 51°13.637 2°56.016 18.5229 0.120336 0.575828 -2.458615
2012-05-21 07:24:49 51°13.638 2°56.014 18.525 0.120336 0.57587 -2.458615
2012-05-21 07:25:49 51°13.638 2°56.014 18.5174 0.120336 0.575903 -2.458615
2012-05-21 07:26:49 51°13.638 2°56.015 18.5185 0.120336 0.575945 -2.458615
2012-05-21 07:27:49 51°13.638 2°56.015 18.5223 0.120336 0.575987 -2.458615
2012-05-21 07:28:49 51°13.639 2°56.015 18.5323 0.120233 0.575517 -2.458615
2012-05-21 07:29:49 51°13.639 2°56.016 18.5245 0.120336 0.576063 -2.458615
2012-05-21 07:30:49 51°13.638 2°56.016 18.5222 0.120233 0.575584 -2.458615
2012-05-21 07:31:49 51°13.637 2°56.018 18.5305 0.120336 0.57613 -2.458615
2012-05-21 07:32:49 51°13.636 2°56.018 18.5242 0.120336 0.576172 -2.458615
2012-05-21 07:33:49 51°13.637 2°56.016 18.5353 0.120233 0.575694 -2.458615
2012-05-21 07:34:49 51°13.636 2°56.017 18.5351 0.120233 0.575736 -2.458615
2012-05-21 07:35:49 51°13.636 2°56.018 18.5363 0.120336 0.57629 -2.458615
2012-05-21 07:36:49 51°13.635 2°56.019 18.5377 0.120233 0.575811 -2.458615
2012-05-21 07:37:48 51°13.635 2°56.019 18.5336 0.120233 0.575845 -2.458615
2012-05-21 07:38:49 51°13.636 2°56.018 18.5466 0.120233 0.575887 -2.458615
2012-05-21 07:39:49 51°13.636 2°56.018 18.555 0.120233 0.575929 -2.458615
2012-05-21 07:40:49 51°13.636 2°56.018 18.5488 0.120233 0.575963 -2.458615
2012-05-21 07:41:49 51°13.636 2°56.017 18.5591 0.120336 0.576517 -2.458615
2012-05-21 07:42:49 51°13.636 2°56.018 18.5518 0.120131 0.575535 -2.458615
2012-05-21 07:43:49 51°13.636 2°56.021 18.5516 0.120233 0.576081 -2.458615
2012-05-21 07:44:49 51°13.636 2°56.019 18.5647 0.120233 0.576114 -2.458615
2012-05-21 07:45:49 51°13.638 2°56.019 18.571 0.120233 0.576156 -2.458615
2012-05-21 07:46:48 51°13.637 2°56.02 18.5654 0.120233 0.57619 -2.458615
2012-05-21 07:47:48 51°13.637 2°56.019 18.5652 0.120233 0.576232 -2.458615
2012-05-21 07:48:48 51°13.637 2°56.019 18.5626 0.120233 0.576266 -2.458615
2012-05-21 07:49:48 51°13.637 2°56.019 18.569 0.120233 0.5763 -2.458615
2012-05-21 07:50:48 51°13.636 2°56.02 18.5713 0.120131 0.575829 -2.458615
2012-05-21 07:51:48 51°13.637 2°56.018 18.5742 0.120131 0.575871 -2.458615
2012-05-21 07:52:48 51°13.637 2°56.018 18.5757 0.120233 0.576426 -2.458615
2012-05-21 07:53:48 51°13.636 2°56.019 18.5786 0.120131 0.575947 -2.458615
2012-05-21 07:54:48 51°13.638 2°56.018 18.5781 0.120131 0.575989 -2.458615
2012-05-21 07:55:48 51°13.637 2°56.018 18.6049 0.120131 0.576031 -2.458615
2012-05-21 07:56:49 51°13.636 2°56.018 18.5518 0.120131 0.576073 -2.458615
2012-05-21 07:57:48 51°13.636 2°56.018 18.5685 0.120131 0.576107 -2.458615
2012-05-21 07:58:48 51°13.636 2°56.018 18.573 0.120131 0.576149 -2.458615
2012-05-21 07:59:48 51°13.636 2°56.018 18.5576 0.120131 0.576183 -2.458615
2012-05-21 08:00:48 51°13.636 2°56.019 18.586 0.120131 0.576225 -2.458615
2012-05-21 08:01:48 51°13.636 2°56.019 18.5757 0.120233 0.576789 -2.458615
2012-05-21 08:02:47 51°13.636 2°56.019 18.6064 0.120131 0.576318 -2.458615
2012-05-21 08:03:47 51°13.635 2°56.02 18.5996 0.120028 0.575847 -2.458615
2012-05-21 08:04:45 51°13.635 2°56.019 18.5975 0.120131 0.576402 -2.458615
2012-05-21 08:05:46 51°13.635 2°56.019 18.5921 0.120131 0.576444 -2.458615
2012-05-21 08:06:45 51°13.635 2°56.018 18.6016 0.120131 0.576487 -2.458615
2012-05-21 08:07:45 51°13.636 2°56.018 18.6011 0.120131 0.576537 -2.458615
2012-05-21 08:08:45 51°13.637 2°56.018 18.5959 0.120028 0.576058 -2.458615
2012-05-21 08:09:47 51°13.636 2°56.018 18.6089 0.120028 0.5761 -2.458615
2012-05-21 08:10:45 51°13.636 2°56.018 18.6119 0.120028 0.576142 -2.458615
2012-05-21 08:11:49 51°13.638 2°56.016 18.6209 0.120028 0.576184 -2.458615
2012-05-21 08:12:49 51°13.637 2°56.016 18.6655 0.120028 0.576227 -2.458615
2012-05-21 08:13:48 51°13.638 2°56.016 18.6877 0.120028 0.57626 -2.458615
2012-05-21 08:14:48 51°13.641 2°56.017 18.6381 0.119925 0.575781 -2.458615
2012-05-21 08:15:49 51°13.637 2°56.017 18.6655 0.120233 0.577355 -2.458615
2012-05-21 08:16:48 51°13.64 2°55.989 18.6175 0.120028 0.576362 -2.458615
2012-05-21 08:17:48 51°13.662 2°55.895 18.6965 0.120131 0.576926 -2.458615
2012-05-21 08:18:48 51°13.697 2°55.794 18.6895 0.120131 0.576951 -2.458615
2012-05-21 08:19:48 51°13.753 2°55.702 18.68 0.120131 0.576994 -2.458615
2012-05-21 08:20:48 51°13.822 2°55.628 18.6674 0.120131 0.577053 -2.458615
2012-05-21 08:21:48 51°13.899 2°55.598 18.6775 0.120233 0.577626 -2.458615
2012-05-21 08:22:48 51°13.96 2°55.634 18.6364 0.120028 0.576759 -2.458615
2012-05-21 08:23:48 51°13.975 2°55.641 18.399 0.120131 0.577044 -2.458615
2012-05-21 08:24:48 51°14.007 2°55.546 18.2688 0.120028 0.576759 -2.458615
2012-05-21 08:25:48 51°14.106 2°55.433 18.3047 0.120131 0.577341 -2.458615
2012-05-21 08:26:48 51°14.233 2°55.332 18.3225 0.120028 0.576852 -2.458615
2012-05-21 08:27:48 51°14.361 2°55.204 18.0989 0.120131 0.577426 -2.458615
2012-05-21 08:28:48 51°14.496 2°55.052 18.1637 0.120028 0.576988 -2.458615
2012-05-21 08:29:47 51°14.633 2°54.862 18.0612 0.120131 0.577629 -2.458615
2012-05-21 08:30:45 51°14.704 2°54.593 18.1818 0.120131 0.577714 -2.458615
2012-05-21 08:31:45 51°14.577 2°54.335 18.0107 0.120439 0.579402 -2.458615
2012-05-21 08:32:45 51°14.415 2°54.097 18.1278 0.120131 0.577969 -2.458615
2012-05-21 08:33:45 51°14.276 2°53.822 18.2265 0.120234 0.578594 -2.458615
2012-05-21 08:34:45 51°14.151 2°53.533 18.2638 0.120028 0.577683 -2.458615
2012-05-21 08:35:45 51°14.014 2°53.26 18.3707 0.120131 0.578334 -2.458615
2012-05-21 08:36:45 51°13.876 2°52.986 18.302 0.119925 0.577364 -2.458615
2012-05-21 08:37:44 51°13.751 2°52.705 18.3797 0.119925 0.577432 -2.458615
2012-05-21 08:38:45 51°13.629 2°52.406 18.4909 0.120028 0.578023 -2.458615
2012-05-21 08:39:44 51°13.511 2°52.115 13.3578 1.822894 11.877141 -2.458615
2012-05-21 08:40:45 51°13.388 2°51.813 12.9137 3.512852 28.91883 -2.458615
2012-05-21 08:41:45 51°13.262 2°51.521 12.7971 3.547542 29.610388 -2.458615
2012-05-21 08:42:44 51°13.138 2°51.232 12.7585 3.543091 29.676813 -2.458615
2012-05-21 08:43:44 51°13.014 2°50.934 12.744 3.540607 29.697119 -2.458615
2012-05-21 08:44:44 51°12.898 2°50.625 12.7387 3.53657 29.688288 -2.458615
2012-05-21 08:45:45 51°12.78 2°50.309 12.7294 3.534396 29.684096 -2.458615
2012-05-21 08:46:44 51°12.667 2°50.003 12.7314 3.534499 29.705836 -2.458615
2012-05-21 08:47:45 51°12.548 2°49.69 12.7073 3.535224 29.718634 -2.458615
2012-05-21 08:48:45 51°12.43 2°49.381 12.7193 3.535949 29.73211 -2.458615
2012-05-21 08:49:45 51°12.318 2°49.071 12.7099 3.539573 29.769288 -2.458615
2012-05-21 08:50:45 51°12.205 2°48.76 12.7176 3.545371 29.830825 -2.458615
2012-05-21 08:51:45 51°12.088 2°48.452 12.714 3.549616 29.873845 -2.458615
2012-05-21 08:52:45 51°11.981 2°48.139 12.727 3.554483 29.913222 -2.458615
2012-05-21 08:53:45 51°11.891 2°47.817 12.7384 3.555 29.905894 -2.458615
2012-05-21 08:54:45 51°11.799 2°47.496 12.7468 3.552722 29.884625 -2.458615
2012-05-21 08:55:45 51°11.712 2°47.165 12.7418 3.553343 29.891101 -2.458615
2012-05-21 08:56:45 51°11.618 2°46.838 12.7436 3.553965 29.8942 -2.458615
2012-05-21 08:57:45 51°11.531 2°46.506 12.7446 3.553654 29.895351 -2.458615
2012-05-21 08:58:45 51°11.475 2°46.16 12.7514 3.560074 29.953948 -2.458615
2012-05-21 08:59:45 51°11.426 2°45.815 12.7477 3.568771 30.034516 -2.458615
2012-05-21 09:00:45 51°11.372 2°45.473 12.7482 3.579022 30.131671 -2.458615
2012-05-21 09:01:45 51°11.32 2°45.132 12.7465 3.585235 30.190433 -2.458615
2012-05-21 09:02:45 51°11.263 2°44.793 12.7418 3.594657 30.277871 -2.458615
2012-05-21 09:03:45 51°11.205 2°44.455 12.7385 3.606048 30.389245 -2.458615
2012-05-21 09:04:45 51°11.155 2°44.114 12.7356 3.61164 30.442964 -2.458615
2012-05-21 09:05:45 51°11.104 2°43.777 12.7307 3.623756 30.560569 -2.458615
2012-05-21 09:06:45 51°11.049 2°43.443 12.7349 3.644363 30.757194 -2.458615
2012-05-21 09:07:45 51°11.005 2°43.104 12.7288 3.655962 30.865991 -2.458615
2012-05-21 09:08:45 51°10.95 2°42.777 12.7262 3.668183 30.985582 -2.458615
2012-05-21 09:09:45 51°10.898 2°42.448 12.7245 3.67885 31.088569 -2.458615
2012-05-21 09:10:45 51°10.844 2°42.12 12.7249 3.686721 31.161816 -2.458615
2012-05-21 09:11:45 51°10.791 2°41.786 12.7191 3.69366 31.230563 -2.458615
2012-05-21 09:12:45 51°10.74 2°41.45 12.7231 3.697389 31.265617 -2.458615
2012-05-21 09:13:45 51°10.693 2°41.114 12.7141 3.701014 31.30041 -2.458615
2012-05-21 09:14:44 51°10.643 2°40.784 12.7098 3.717792 31.461809 -2.458615
2012-05-21 09:15:44 51°10.589 2°40.449 12.7051 3.730325 31.587656 -2.458615
2012-05-21 09:16:45 51°10.549 2°40.15 12.7047 3.738819 31.671254 -2.458615
2012-05-21 09:17:44 51°10.572 2°40.041 12.6927 3.74524 31.731778 -2.458615
2012-05-21 09:18:45 51°10.588 2°40.036 12.6891 3.749177 31.779676 -2.458615
2012-05-21 09:19:44 51°10.565 2°40.022 12.6861 3.750834 31.801789 -2.458615
2012-05-21 09:20:45 51°10.539 2°40.003 12.6847 3.751041 31.805185 -2.458615
2012-05-21 09:21:45 51°10.513 2°39.982 12.6882 3.751456 31.811976 -2.458615
2012-05-21 09:22:44 51°10.488 2°39.962 12.7003 3.752595 31.811194 -2.458615
2012-05-21 09:23:45 51°10.461 2°39.94 12.7036 3.752802 31.800183 -2.458615
2012-05-21 09:24:44 51°10.437 2°39.918 12.695 3.754356 31.812672 -2.458615
2012-05-21 09:25:45 51°10.41 2°39.9 12.7169 3.752388 31.794838 -2.458615
2012-05-21 09:26:44 51°10.384 2°39.88 12.7091 3.751248 31.774026 -2.458615
2012-05-21 09:27:45 51°10.357 2°39.861 12.728 3.752905 31.788926 -2.458615
2012-05-21 09:28:45 51°10.333 2°39.841 12.7194 3.757359 31.827306 -2.458615
2012-05-21 09:29:44 51°10.308 2°39.824 12.7422 3.759845 31.844973 -2.458615
2012-05-21 09:30:45 51°10.282 2°39.807 12.7392 3.766889 31.907757 -2.458615
2012-05-21 09:31:44 51°10.259 2°39.79 12.7292 3.769582 31.930978 -2.458615
2012-05-21 09:32:45 51°10.234 2°39.77 12.7285 3.76606 31.899224 -2.458615
2012-05-21 09:33:44 51°10.21 2°39.751 12.7342 3.761295 31.856479 -2.458615
2012-05-21 09:34:45 51°10.187 2°39.732 12.7356 3.755909 31.802125 -2.458615
2012-05-21 09:35:44 51°10.164 2°39.712 12.7489 3.749694 31.739992 -2.458615
2012-05-21 09:36:44 51°10.142 2°39.702 12.7524 3.748037 31.718647 -2.458615
2012-05-21 09:37:45 51°10.128 2°39.709 12.7587 3.745654 31.694785 -2.458615
2012-05-21 09:38:45 51°10.107 2°39.699 12.7556 3.745758 31.690029 -2.458615
2012-05-21 09:39:45 51°10.082 2°39.683 12.7547 3.744826 31.682687 -2.458615
2012-05-21 09:40:45 51°10.058 2°39.664 12.7643 3.743065 31.665398 -2.458615
2012-05-21 09:41:45 51°10.035 2°39.645 12.773 3.743375 31.655444 -2.458615
2012-05-21 09:42:45 51°10.012 2°39.625 12.7773 3.743789 31.652191 -2.458615
2012-05-21 09:43:45 51°9.995 2°39.66 12.7796 3.742961 31.645827 -2.458615
2012-05-21 09:44:45 51°10.052 2°39.814 12.7786 3.740786 31.623941 -2.458615
2012-05-21 09:45:45 51°10.176 2°39.886 12.7516 3.736539 31.587574 -2.458615
2012-05-21 09:46:45 51°10.28 2°40.011 12.7315 3.741822 31.657279 -2.458615
2012-05-21 09:47:45 51°10.333 2°40.211 12.731 3.729807 31.55635 -2.458615
2012-05-21 09:48:45 51°10.467 2°40.288 12.7155 3.712303 31.397364 -2.458615
2012-05-21 09:49:45 51°10.585 2°40.276 12.6994 3.723696 31.518093 -2.458615
2012-05-21 09:50:45 51°10.586 2°40.19 12.6943 3.722764 31.520017 -2.458615
2012-05-21 09:51:45 51°10.568 2°40.135 12.6918 3.722039 31.514617 -2.458615
2012-05-21 09:52:45 51°10.527 2°40.06 12.6909 3.722039 31.516044 -2.458615
2012-05-21 09:53:45 51°10.434 2°39.923 12.6925 3.722764 31.522158 -2.458615
2012-05-21 09:54:45 51°10.376 2°39.785 12.694 3.723696 31.527368 -2.458615
2012-05-21 09:55:45 51°10.346 2°39.69 12.6925 3.725353 31.542975 -2.458615
2012-05-21 09:56:45 51°10.315 2°39.614 12.6934 3.726596 31.555395 -2.458615
2012-05-21 09:57:45 51°10.282 2°39.539 12.692 3.727425 31.563199 -2.458615
2012-05-21 09:58:45 51°10.251 2°39.457 12.6935 3.729082 31.580238 -2.458615
2012-05-21 09:59:45 51°10.213 2°39.381 12.6915 3.730014 31.587589 -2.458615
2012-05-21 10:00:45 51°10.175 2°39.306 12.6912 3.730014 31.588304 -2.458615
2012-05-21 10:01:45 51°10.137 2°39.23 12.6919 3.731982 31.606128 -2.458615
2012-05-21 10:02:45 51°10.101 2°39.155 12.6937 3.726389 31.553444 -2.458615
2012-05-21 10:03:45 51°10.067 2°39.075 12.6968 3.72525 31.541285 -2.458615
2012-05-21 10:04:45 51°10.031 2°39.002 12.6978 3.731775 31.599884 -2.458615
2012-05-21 10:05:45 51°9.997 2°38.926 12.6983 3.736747 31.646002 -2.458615
2012-05-21 10:06:45 51°9.961 2°38.853 12.6982 3.736436 31.643074 -2.458615
2012-05-21 10:07:45 51°9.926 2°38.778 12.6999 3.734675 31.625055 -2.458615
2012-05-21 10:08:45 51°9.892 2°38.704 12.7237 3.736954 31.642224 -2.458615
2012-05-21 10:09:45 51°9.857 2°38.631 12.7342 3.734157 31.597293 -2.458615
2012-05-21 10:10:45 51°9.823 2°38.557 12.7396 3.732085 31.572083 -2.458615
2012-05-21 10:11:45 51°9.79 2°38.484 12.746 3.729703 31.543962 -2.458615
2012-05-21 10:12:46 51°9.758 2°38.409 12.7503 3.728874 31.531178 -2.458615
2012-05-21 10:13:45 51°9.728 2°38.335 12.7546 3.728874 31.526903 -2.458615
2012-05-21 10:14:46 51°9.694 2°38.263 12.7565 3.730221 31.538853 -2.458615
2012-05-21 10:15:46 51°9.667 2°38.189 12.7586 3.730221 31.536003 -2.458615
2012-05-21 10:16:45 51°9.645 2°38.117 12.7598 3.730428 31.535813 -2.458615
2012-05-21 10:17:45 51°9.624 2°38.043 12.7604 3.728046 31.513414 -2.458615
2012-05-21 10:18:45 51°9.604 2°37.974 12.7634 3.732914 31.55705 -2.458615
2012-05-21 10:19:45 51°9.583 2°37.905 12.7642 3.734882 31.575556 -2.458615
2012-05-21 10:20:45 51°9.562 2°37.834 12.7635 3.735814 31.582896 -2.458615
2012-05-21 10:21:45 51°9.537 2°37.766 12.767 3.736228 31.585365 -2.458615
2012-05-21 10:22:44 51°9.513 2°37.694 12.7672 3.736125 31.583678 -2.458615
2012-05-21 10:23:45 51°9.488 2°37.623 12.768 3.735503 31.577121 -2.458615
2012-05-21 10:24:45 51°9.468 2°37.549 12.7681 3.736125 31.582251 -2.458615
2012-05-21 10:25:45 51°9.449 2°37.478 12.7677 3.739543 31.614394 -2.458615
2012-05-21 10:26:45 51°9.435 2°37.391 12.7654 3.740889 31.627058 -2.458615
2012-05-21 10:27:45 51°9.42 2°37.305 12.7639 3.745136 31.668433 -2.458615
2012-05-21 10:28:45 51°9.404 2°37.218 12.7594 3.748761 31.704688 -2.458615
2012-05-21 10:29:45 51°9.387 2°37.129 12.7581 3.750833 31.727048 -2.458615
2012-05-21 10:30:02 51°9.381 2°37.109 12.7546 3.752594 31.745055 -2.458615
2012-05-21 10:31:45 51°9.385 2°36.918 12.7559 3.753008 31.752542 -2.458615
2012-05-21 10:32:45 51°9.385 2°36.837 12.7496 3.75218 31.746176 -2.458615
2012-05-21 10:33:45 51°9.383 2°36.753 12.7469 3.750522 31.734162 -2.458615
2012-05-21 10:34:45 51°9.386 2°36.671 12.742 3.748969 31.721687 -2.458615
2012-05-21 10:35:45 51°9.387 2°36.588 12.7386 3.750523 31.741336 -2.458615
2012-05-21 10:36:45 51°9.39 2°36.512 12.7351 3.748037 31.721516 -2.458615
2012-05-21 10:37:45 51°9.403 2°36.442 12.7302 3.748037 31.725103 -2.458615
2012-05-21 10:38:45 51°9.41 2°36.396 12.7049 3.749694 31.743582 -2.458615
2012-05-21 10:39:45 51°9.403 2°36.376 12.7104 3.753527 31.797661 -2.458615
2012-05-21 10:40:45 51°9.389 2°36.377 12.7062 3.74928 31.756199 -2.458615
2012-05-21 10:41:45 51°9.375 2°36.382 12.7178 3.750419 31.768374 -2.458615
2012-05-21 10:42:45 51°9.36 2°36.382 12.7257 3.746897 31.725135 -2.458615
2012-05-21 10:43:45 51°9.331 2°36.276 12.7339 3.747933 31.727715 -2.458615
2012-05-21 10:44:45 51°9.314 2°36.132 12.7341 3.832359 32.518379 -2.458615
2012-05-21 10:45:45 51°9.305 2°36.058 12.7279 3.837642 32.56905 -2.458615
2012-05-21 10:46:45 51°9.299 2°36.028 12.7235 3.842201 32.617307 -2.458615
2012-05-21 10:47:45 51°9.29 2°36.021 12.7279 3.844169 32.637398 -2.458615
2012-05-21 10:48:45 51°9.28 2°36.025 12.7274 3.843548 32.630042 -2.458615
2012-05-21 10:49:45 51°9.268 2°36.041 12.7284 3.844169 32.634444 -2.458615
2012-05-21 10:50:45 51°9.258 2°36.061 12.7351 3.844273 32.633208 -2.458615
2012-05-21 10:51:45 51°9.249 2°36.033 12.7401 3.843237 32.618985 -2.458615
2012-05-21 10:52:45 51°9.26 2°35.991 12.737 3.843547 32.618234 -2.458615
2012-05-21 10:53:34 51°28.55 2°40.029 18.3363 0.120645 0.575292 -2.458615
2012-05-21 10:54:05 51°9.3 2°36.005 12.7276 3.846655 32.653524 -2.458615
2012-05-21 10:55:05 51°9.3 2°36.156 12.7148 3.848417 32.679789 -2.458615
2012-05-21 10:56:05 51°9.339 2°36.417 12.7415 3.849867 32.70091 -2.458615
2012-05-21 10:57:05 51°9.401 2°36.683 12.744 3.837746 32.568556 -2.458615
2012-05-21 10:58:05 51°9.464 2°36.95 12.7349 3.832669 32.522051 -2.458615
2012-05-21 10:59:05 51°9.532 2°37.221 12.7066 3.83008 32.501988 -2.458615
2012-05-21 11:00:05 51°9.597 2°37.495 12.6927 3.82345 32.463576 -2.458615
2012-05-21 11:01:05 51°9.662 2°37.776 12.692 3.821171 32.453051 -2.458615
2012-05-21 11:02:05 51°9.728 2°38.054 12.6952 3.817338 32.416803 -2.458615
2012-05-21 11:03:05 51°9.791 2°38.336 12.6985 3.814023 32.383258 -2.458615
2012-05-21 11:04:05 51°9.853 2°38.619 12.7009 3.807185 32.316433 -2.458615
2012-05-21 11:05:05 51°9.916 2°38.9 12.6999 3.799312 32.24058 -2.458615
2012-05-21 11:06:05 51°9.98 2°39.187 12.7011 3.788332 32.137597 -2.458615
2012-05-21 11:07:05 51°10.041 2°39.471 12.7006 3.781184 32.068661 -2.458615
2012-05-21 11:08:05 51°10.105 2°39.759 12.7029 3.773622 31.99874 -2.458615
2012-05-21 11:09:05 51°10.167 2°40.044 12.7067 3.766889 31.93304 -2.458615
2012-05-21 11:10:05 51°10.23 2°40.332 12.7092 3.759535 31.861507 -2.458615
2012-05-21 11:11:05 51°10.294 2°40.623 12.7169 3.754045 31.806862 -2.458615
2012-05-21 11:12:05 51°10.359 2°40.909 12.7288 3.742547 31.690611 -2.458615
2012-05-21 11:13:05 51°10.424 2°41.197 12.7309 3.726492 31.531578 -2.458615
2012-05-21 11:14:05 51°10.49 2°41.485 12.7317 3.722246 31.489479 -2.458615
2012-05-21 11:15:05 51°10.554 2°41.775 12.7198 3.709713 31.372301 -2.458615
2012-05-21 11:16:05 51°10.617 2°42.064 12.7162 3.709506 31.37958 -2.458615
2012-05-21 11:17:05 51°10.681 2°42.357 12.7128 3.698321 31.277211 -2.458615
2012-05-21 11:18:05 51°10.745 2°42.65 12.7143 3.692521 31.226212 -2.458615
2012-05-21 11:19:05 51°10.812 2°42.944 12.7137 3.685685 31.161247 -2.458615
2012-05-21 11:20:05 51°10.878 2°43.24 12.7159 3.679264 31.100902 -2.458615
2012-05-21 11:21:05 51°10.947 2°43.534 12.71 3.671807 31.030845 -2.458615
2012-05-21 11:22:05 51°11.013 2°43.828 12.706 3.66404 30.962097 -2.458615
2012-05-21 11:23:05 51°11.083 2°44.122 12.7049 3.652131 30.850969 -2.458615
2012-05-21 11:24:05 51°11.149 2°44.415 12.7061 3.637736 30.720053 -2.458615
2012-05-21 11:25:05 51°11.216 2°44.707 12.6984 3.624067 30.590448 -2.458615
2012-05-21 11:26:05 51°11.285 2°44.999 12.6964 3.620235 30.559363 -2.458615
2012-05-21 11:27:05 51°11.351 2°45.297 12.6979 3.612055 30.484047 -2.458615
2012-05-21 11:28:05 51°11.421 2°45.593 12.6978 3.603356 30.402523 -2.458615
2012-05-21 11:29:05 51°11.491 2°45.891 12.6992 3.596315 30.336551 -2.458615
2012-05-21 11:30:06 51°11.559 2°46.191 12.6974 3.590206 30.277272 -2.458615
2012-05-21 11:31:05 51°11.63 2°46.481 12.6966 3.592794 30.303573 -2.458615
2012-05-21 11:32:05 51°11.699 2°46.783 12.7026 3.588963 30.267006 -2.458615
2012-05-21 11:33:05 51°11.765 2°47.084 12.7151 3.583475 30.211517 -2.458615
2012-05-21 11:34:05 51°11.843 2°47.375 12.7255 3.577676 30.147694 -2.458615
2012-05-21 11:35:05 51°11.941 2°47.644 12.725 3.567529 30.046664 -2.458615
2012-05-21 11:36:05 51°12.037 2°47.916 12.7194 3.562041 29.99536 -2.458615
2012-05-21 11:37:05 51°12.131 2°48.19 12.7161 3.558831 29.969424 -2.458615
2012-05-21 11:38:05 51°12.226 2°48.465 12.7138 3.556036 29.945324 -2.458615
2012-05-21 11:39:05 51°12.322 2°48.743 12.7118 3.552516 29.913774 -2.458615
2012-05-21 11:40:05 51°12.419 2°49.019 12.7079 3.550238 29.894514 -2.458615
2012-05-21 11:41:05 51°12.51 2°49.295 12.7032 3.545475 29.852031 -2.458615
2012-05-21 11:42:05 51°12.606 2°49.573 12.6993 3.539884 29.803836 -2.458615
2012-05-21 11:43:05 51°12.704 2°49.847 12.6895 3.533672 29.75051 -2.458615
2012-05-21 11:44:05 51°12.802 2°50.124 12.6783 3.529117 29.71602 -2.458615
2012-05-21 11:45:05 51°12.898 2°50.405 12.6692 3.522698 29.663436 -2.458615
2012-05-21 11:46:05 51°12.999 2°50.685 12.661 3.516796 29.615679 -2.458615
2012-05-21 11:47:05 51°13.097 2°50.961 12.6575 3.510067 29.558167 -2.458615
2012-05-21 11:48:05 51°13.192 2°51.236 12.657 3.506754 29.529893 -2.458615
2012-05-21 11:49:05 51°13.272 2°51.458 12.6552 3.50313 29.496714 -2.458615
2012-05-21 11:50:05 51°13.288 2°51.526 12.6551 3.501681 29.48518 -2.458615
2012-05-21 11:51:08 51°13.286 2°51.563 12.6548 3.484806 29.326288 -2.458615
2012-05-21 11:52:07 51°13.285 2°51.6 12.6619 3.483046 29.310526 -2.458615
2012-05-21 11:53:05 51°13.283 2°51.639 12.6902 3.478077 29.24892 -2.458615
2012-05-21 11:54:05 51°13.282 2°51.68 12.6771 3.488015 29.335649 -2.458615
2012-05-21 11:55:05 51°13.281 2°51.72 12.6584 3.547443 29.901527 -2.458615
2012-05-21 11:56:05 51°13.278 2°51.761 12.665 3.546304 29.898996 -2.458615
2012-05-21 11:57:05 51°13.276 2°51.801 12.6618 3.546614 29.895809 -2.458615
2012-05-21 11:58:05 51°13.276 2°51.842 12.6791 3.546304 29.89358 -2.458615
2012-05-21 11:59:05 51°13.276 2°51.885 12.6795 3.547132 29.887792 -2.458615
2012-05-21 12:00:05 51°13.276 2°51.924 12.6714 3.547132 29.889146 -2.458615
2012-05-21 12:01:05 51°13.276 2°51.967 12.6836 3.546097 29.888258 -2.458615
2012-05-21 12:02:05 51°13.275 2°52.008 12.667 3.546511 29.886718 -2.458615
2012-05-21 12:03:05 51°13.273 2°52.046 12.666 3.545268 29.883216 -2.458615
2012-05-21 12:04:05 51°13.271 2°52.083 12.6665 3.542887 29.861616 -2.458615
2012-05-21 12:05:05 51°13.27 2°52.121 12.672 3.54123 29.844768 -2.458615
2012-05-21 12:06:05 51°13.27 2°52.159 12.6722 3.531705 29.75502 -2.458615
2012-05-21 12:07:05 51°13.271 2°52.198 12.6779 3.539988 29.826394 -2.458615
2012-05-21 12:08:05 51°13.271 2°52.237 12.6649 3.53947 29.823579 -2.458615
2012-05-21 12:09:05 51°13.271 2°52.275 12.6657 3.538124 29.817744 -2.458615
2012-05-21 12:10:05 51°13.279 2°52.343 12.6681 3.538124 29.817068 -2.458615
2012-05-21 12:11:05 51°13.32 2°52.418 12.6604 3.538021 29.8161 -2.458615
2012-05-21 12:12:06 51°13.379 2°52.392 12.6646 3.536986 29.809793 -2.458615
2012-05-21 12:13:05 51°13.422 2°52.177 12.6667 3.538538 29.818241 -2.458615
2012-05-21 12:14:05 51°13.423 2°51.912 12.6653 3.545061 29.87519 -2.458615
2012-05-21 12:15:05 51°13.42 2°51.644 12.6664 3.548685 29.909087 -2.458615
2012-05-21 12:16:05 51°13.398 2°51.386 12.6794 3.553448 29.952967 -2.458615
2012-05-21 12:17:05 51°13.317 2°51.2 12.6862 3.560488 30.010019 -2.458615
2012-05-21 12:18:05 51°13.266 2°51.148 12.6883 3.565355 30.052154 -2.458615
2012-05-21 12:19:05 51°13.236 2°51.129 12.6912 3.568358 30.079573 -2.458615
2012-05-21 12:20:05 51°13.22 2°51.127 12.6918 3.570532 30.096516 -2.458615
2012-05-21 12:21:05 51°13.216 2°51.137 12.6941 3.572085 30.109007 -2.458615
2012-05-21 12:22:05 51°13.217 2°51.159 12.6938 3.573328 30.119272 -2.458615
2012-05-21 12:23:06 51°13.207 2°51.146 12.6949 3.573431 30.120922 -2.458615
2012-05-21 12:24:05 51°13.152 2°51.132 12.6963 3.574052 30.126055 -2.458615
2012-05-21 12:25:05 51°13.119 2°51.134 12.6867 3.574052 30.123328 -2.458615
2012-05-21 12:26:05 51°13.105 2°51.145 12.6825 3.570843 30.099423 -2.458615
2012-05-21 12:27:05 51°13.1 2°51.161 12.6791 3.567115 30.068626 -2.458615
2012-05-21 12:28:05 51°13.072 2°51.116 12.6768 3.564734 30.049742 -2.458615
2012-05-21 12:29:05 51°12.998 2°51.043 12.678 3.562042 30.024551 -2.458615
2012-05-21 12:30:05 51°12.954 2°50.953 12.6807 3.562042 30.022512 -2.458615
2012-05-21 12:31:05 51°12.929 2°50.87 12.6813 3.563491 30.034716 -2.458615
2012-05-21 12:32:05 51°12.909 2°50.802 12.6817 3.564319 30.041786 -2.458615
2012-05-21 12:33:05 51°12.882 2°50.748 12.6836 3.564941 30.048959 -2.458615
2012-05-21 12:34:05 51°12.833 2°50.714 12.6855 3.566597 30.063101 -2.458615
2012-05-21 12:35:05 51°12.784 2°50.681 12.6976 3.566597 30.059699 -2.458615
2012-05-21 12:36:05 51°12.737 2°50.647 12.7062 3.562663 30.014061 -2.458615
2012-05-21 12:37:05 51°12.691 2°50.614 12.7106 3.555518 29.941162 -2.458615
2012-05-21 12:38:05 51°12.645 2°50.58 12.7056 3.552516 29.90904 -2.458615
2012-05-21 12:39:05 51°12.6 2°50.545 12.7095 3.549927 29.887556 -2.458615
2012-05-21 12:40:05 51°12.561 2°50.502 12.7069 3.550755 29.891916 -2.458615
2012-05-21 12:41:05 51°12.532 2°50.45 12.707 3.550548 29.892009 -2.458615
2012-05-21 12:42:05 51°12.507 2°50.39 12.7103 3.553551 29.920069 -2.458615
2012-05-21 12:43:05 51°12.483 2°50.333 12.7169 3.558728 29.965068 -2.458615
2012-05-21 12:44:05 51°12.457 2°50.274 12.7181 3.563491 30.006197 -2.458615
2012-05-21 12:45:05 51°12.43 2°50.217 12.7196 3.563077 29.999613 -2.458615
2012-05-21 12:46:05 51°12.401 2°50.162 12.7191 3.562766 29.997388 -2.458615
2012-05-21 12:47:05 51°12.372 2°50.106 12.7202 3.56494 30.01839 -2.458615
2012-05-21 12:48:05 51°12.341 2°50.054 12.7199 3.567632 30.041519 -2.458615
2012-05-21 12:49:05 51°12.311 2°50.004 12.7219 3.56815 30.046359 -2.458615
2012-05-21 12:50:05 51°12.281 2°49.949 12.7225 3.568875 30.052455 -2.458615
2012-05-21 12:51:05 51°12.253 2°49.893 12.7264 3.570324 30.064648 -2.458615
2012-05-21 12:52:05 51°12.225 2°49.839 12.731 3.570014 30.060385 -2.458615
2012-05-21 12:53:05 51°12.195 2°49.785 12.7327 3.5696 30.051759 -2.458615
2012-05-21 12:54:05 51°12.166 2°49.732 12.7343 3.569392 30.048466 -2.458615
2012-05-21 12:55:05 51°12.138 2°49.677 12.7364 3.569082 30.044205 -2.458615
2012-05-21 12:56:05 51°12.11 2°49.621 12.737 3.567218 30.025432 -2.458615
2012-05-21 12:57:05 51°12.08 2°49.57 12.7389 3.567943 30.030847 -2.458615
2012-05-21 12:58:05 51°12.049 2°49.518 12.745 3.572809 30.074286 -2.458615
2012-05-21 12:59:05 51°12.019 2°49.464 12.7427 3.570221 30.046024 -2.458615
2012-05-21 13:00:05 51°11.99 2°49.409 12.7436 3.566493 30.011879 -2.458615
2012-05-21 13:01:05 51°11.967 2°49.351 12.7442 3.564422 29.992535 -2.458615
2012-05-21 13:02:05 51°11.96 2°49.284 12.7457 3.562662 29.975417 -2.458615
2012-05-21 13:03:05 51°11.958 2°49.217 12.7484 3.562766 29.975707 -2.458615
2012-05-21 13:04:05 51°11.958 2°49.148 12.753 3.564733 29.992727 -2.458615
2012-05-21 13:05:05 51°11.964 2°49.083 12.7567 3.569289 30.029857 -2.458615
2012-05-21 13:06:05 51°11.974 2°49.022 12.7587 3.570221 30.037883 -2.458615
2012-05-21 13:07:05 51°11.99 2°48.967 12.7637 3.571049 30.042907 -2.458615
2012-05-21 13:08:05 51°12.013 2°48.912 12.7731 3.574362 30.071139 -2.458615
2012-05-21 13:09:05 51°12.044 2°48.864 12.7822 3.583578 30.151104 -2.458615
2012-05-21 13:10:05 51°12.078 2°48.84 12.7787 3.593207 30.233578 -2.458615
2012-05-21 13:11:05 51°12.11 2°48.837 12.7743 3.593415 30.238242 -2.458615
2012-05-21 13:12:05 51°12.117 2°48.858 12.7728 3.592793 30.236531 -2.458615
2012-05-21 13:13:05 51°12.114 2°48.896 12.7743 3.592379 30.233343 -2.458615
2012-05-21 13:14:05 51°12.11 2°48.943 12.7751 3.592068 30.229757 -2.458615
2012-05-21 13:15:05 51°12.113 2°48.989 12.7766 3.592793 30.234484 -2.458615
2012-05-21 13:16:05 51°12.115 2°49.034 12.7781 3.594346 30.248316 -2.458615
2012-05-21 13:17:05 51°12.113 2°49.041 12.7838 3.594554 30.247521 -2.458615
2012-05-21 13:18:05 51°12.137 2°49.016 12.7858 3.59621 30.257541 -2.458615
2012-05-21 13:19:05 51°12.195 2°49.054 12.7779 3.597867 30.272338 -2.458615
2012-05-21 13:20:05 51°12.24 2°49.223 12.7779 3.59445 30.249284 -2.458615
2012-05-21 13:21:05 51°12.328 2°49.479 12.7767 3.591861 30.22714 -2.458615
2012-05-21 13:22:05 51°12.422 2°49.744 12.7758 3.587202 30.184963 -2.458615
2012-05-21 13:23:05 51°12.516 2°50.013 12.7721 3.580368 30.12112 -2.458615
2012-05-21 13:24:05 51°12.617 2°50.277 12.7607 3.581921 30.142431 -2.458615
2012-05-21 13:25:05 51°12.726 2°50.526 12.7644 3.577779 30.109854 -2.458615
2012-05-21 13:26:05 51°12.834 2°50.775 12.7424 3.582542 30.154363 -2.458615
2012-05-21 13:27:05 51°12.942 2°51.033 12.7448 3.581404 30.157339 -2.458615
2012-05-21 13:28:05 51°13.046 2°51.289 12.7294 3.583578 30.179716 -2.458615
2012-05-21 13:29:05 51°13.15 2°51.539 12.723 3.575398 30.112083 -2.458615
2012-05-21 13:30:05 51°13.255 2°51.791 12.721 3.567632 30.044915 -2.458615
2012-05-21 13:31:05 51°13.364 2°52.037 12.7184 3.565147 30.023041 -2.458615
2012-05-21 13:32:05 51°13.471 2°52.286 12.7161 3.562248 29.998652 -2.458615
2012-05-21 13:33:05 51°13.578 2°52.543 12.7178 3.55966 29.975811 -2.458615
2012-05-21 13:34:05 51°13.695 2°52.779 12.7155 3.559556 29.974843 -2.458615
2012-05-21 13:35:06 51°13.826 2°52.994 12.7079 3.558624 29.970199 -2.458615
2012-05-21 13:36:05 51°13.94 2°53.222 12.6993 3.557589 29.963907 -2.458615
2012-05-21 13:37:05 51°14.057 2°53.451 12.6921 3.556761 29.963618 -2.458615
2012-05-21 13:38:05 51°14.185 2°53.667 12.6905 3.558832 29.988411 -2.458615
2012-05-21 13:39:05 51°14.311 2°53.879 12.6882 3.556347 29.966525 -2.458615
2012-05-21 13:40:06 51°14.436 2°54.086 12.6877 3.556243 29.966234 -2.458615
2012-05-21 13:41:05 51°14.55 2°54.317 12.6871 3.55614 29.965266 -2.458615
2012-05-21 13:42:05 51°14.628 2°54.587 12.6902 3.552516 29.932728 -2.458615
2012-05-21 13:43:05 51°14.59 2°54.879 12.6851 3.550652 29.911238 -2.458615
2012-05-21 13:44:06 51°14.459 2°55.063 12.6745 3.54268 29.840083 -2.458615
2012-05-21 13:45:08 51°14.335 2°55.197 12.7744 3.520523 29.635744 -2.458615
2012-05-21 13:46:08 51°14.239 2°55.304 12.8168 3.47849 29.171589 -2.458615
2012-05-21 13:47:08 51°14.151 2°55.391 12.8842 3.438531 28.766561 -2.458615
2012-05-21 13:48:08 51°14.069 2°55.454 13.1647 3.398265 28.367953 -2.458615
2012-05-21 13:49:08 51°13.995 2°55.506 13.2635 3.396608 28.352638 -2.458615
2012-05-21 13:50:08 51°13.926 2°55.55 13.3624 3.399921 28.385186 -2.458615
2012-05-21 13:51:08 51°13.859 2°55.597 13.4372 3.400128 28.385185 -2.458615
2012-05-21 13:52:08 51°13.794 2°55.652 13.5048 3.404061 28.420288 -2.458615
2012-05-21 13:53:08 51°13.729 2°55.728 13.5691 3.393296 28.321373 -2.458615
2012-05-21 13:54:08 51°13.685 2°55.834 13.6341 3.404475 28.415168 -2.458615
2012-05-21 13:55:08 51°13.654 2°55.932 13.7515 3.408304 28.434599 -2.458615
2012-05-21 13:56:08 51°13.64 2°56.004 13.8563 3.412341 28.452733 -2.458615
2012-05-21 13:57:08 51°13.635 2°56.019 13.9363 3.391846 28.245076 -2.458615
2012-05-21 13:58:08 51°13.636 2°56.019 13.9617 3.417412 28.460612 -2.458615